createdAt,value
2018-05-23T00:01:04.218Z,88.13
2018-05-23T00:03:30.550Z,87.48
2018-05-23T00:05:56.958Z,86.50
2018-05-23T00:08:23.303Z,86.33
2018-05-23T00:10:49.645Z,86.90
2018-05-23T00:13:16.105Z,86.61
2018-05-23T00:15:42.439Z,86.19
2018-05-23T00:18:08.760Z,85.74
2018-05-23T00:20:35.119Z,86.22
2018-05-23T00:23:01.465Z,86.73
2018-05-23T00:25:27.812Z,85.96
2018-05-23T00:27:54.209Z,85.46
2018-05-23T00:30:20.531Z,84.75
2018-05-23T00:32:46.856Z,84.30
2018-05-23T00:35:13.386Z,84.30
2018-05-23T00:37:39.721Z,85.16
2018-05-23T00:40:06.084Z,85.75
2018-05-23T00:42:32.467Z,86.81
2018-05-23T00:44:58.804Z,86.98
2018-05-23T00:47:25.140Z,87.93
2018-05-23T00:49:51.516Z,89.12
2018-05-23T00:52:17.855Z,89.28
2018-05-23T00:54:56.514Z,90.13
2018-05-23T00:57:22.864Z,90.56
2018-05-23T00:59:49.200Z,90.82
2018-05-23T01:02:15.591Z,90.74
2018-05-23T01:07:36.180Z,89.56
2018-05-23T01:10:02.588Z,88.83
2018-05-23T01:12:28.921Z,88.66
2018-05-23T01:14:55.406Z,89.08
2018-05-23T01:17:21.824Z,88.51
2018-05-23T01:19:48.178Z,86.50
2018-05-23T01:22:14.565Z,84.35
2018-05-23T01:24:40.898Z,81.18
2018-05-23T01:27:07.230Z,80.40
2018-05-23T01:29:33.609Z,80.31
2018-05-23T01:31:59.947Z,80.78
2018-05-23T01:34:26.288Z,79.99
2018-05-23T01:36:52.738Z,80.91
2018-05-23T01:39:19.080Z,81.07
2018-05-23T01:41:45.454Z,80.16
2018-05-23T01:44:11.829Z,80.09
2018-05-23T01:46:38.174Z,78.73
2018-05-23T01:49:16.517Z,79.33
2018-05-23T01:51:42.845Z,78.69
2018-05-23T01:54:09.172Z,78.88
2018-05-23T01:56:35.781Z,79.67
2018-05-23T01:59:02.142Z,79.61
2018-05-23T02:01:28.470Z,80.14
2018-05-23T02:03:54.982Z,79.79
2018-05-23T02:06:21.310Z,80.48
2018-05-23T02:08:47.630Z,81.21
2018-05-23T02:11:14.041Z,81.54
2018-05-23T02:13:40.355Z,81.65
2018-05-23T02:16:06.691Z,82.55
2018-05-23T02:18:33.113Z,81.72
2018-05-23T02:21:00.432Z,82.58
2018-05-23T02:23:26.769Z,82.54
2018-05-23T02:25:53.152Z,82.82
2018-05-23T02:28:22.532Z,83.95
2018-05-23T02:30:48.877Z,83.96
2018-05-23T02:33:15.255Z,78.59
2018-05-23T02:35:42.537Z,79.54
2018-05-23T02:38:08.865Z,79.28
2018-05-23T02:40:35.358Z,79.25
2018-05-23T02:43:01.714Z,80.02
2018-05-23T02:45:28.055Z,80.29
2018-05-23T02:47:54.452Z,81.08
2018-05-23T02:50:20.827Z,81.48
2018-05-23T02:52:47.164Z,82.08
2018-05-23T02:55:13.524Z,80.94
2018-05-23T02:57:39.980Z,79.33
2018-05-23T03:00:06.361Z,81.12
2018-05-23T03:02:32.801Z,80.77
2018-05-23T03:04:59.136Z,81.97
2018-05-23T03:07:25.478Z,82.35
2018-05-23T03:09:51.851Z,82.74
2018-05-23T03:12:18.198Z,82.39
2018-05-23T03:14:44.529Z,82.96
2018-05-23T03:17:10.921Z,83.75
2018-05-23T03:19:37.266Z,83.94
2018-05-23T03:22:03.658Z,84.81
2018-05-23T03:24:30.085Z,84.83
2018-05-23T03:26:56.456Z,83.99
2018-05-23T03:29:22.768Z,83.83
2018-05-23T03:31:49.225Z,83.08
2018-05-23T03:34:15.589Z,82.86
2018-05-23T03:36:41.953Z,82.77
2018-05-23T03:39:08.324Z,82.82
2018-05-23T03:41:34.661Z,82.93
2018-05-23T03:44:00.983Z,82.52
2018-05-23T03:46:27.423Z,83.20
2018-05-23T03:48:53.757Z,83.48
2018-05-23T03:51:20.100Z,82.73
2018-05-23T03:53:46.539Z,82.47
2018-05-23T03:56:12.871Z,82.37
2018-05-23T03:58:39.306Z,83.05
2018-05-23T04:01:17.793Z,83.13
2018-05-23T04:03:56.291Z,81.84
2018-05-23T04:06:34.894Z,83.48
2018-05-23T04:09:01.249Z,83.63
2018-05-23T04:11:27.593Z,82.56
2018-05-23T04:13:53.979Z,83.32
2018-05-23T04:16:20.301Z,83.48
2018-05-23T04:18:46.648Z,83.59
2018-05-23T04:21:13.052Z,82.48
2018-05-23T04:23:39.409Z,82.45
2018-05-23T04:26:05.732Z,82.72
2018-05-23T04:28:32.170Z,83.33
2018-05-23T04:30:58.491Z,83.87
2018-05-23T04:33:24.965Z,83.41
2018-05-23T04:35:51.421Z,81.89
2018-05-23T04:38:17.746Z,81.23
2018-05-23T04:40:44.086Z,81.75
2018-05-23T04:43:10.475Z,81.39
2018-05-23T04:45:36.794Z,81.08
2018-05-23T04:48:03.145Z,80.51
2018-05-23T04:50:29.624Z,79.26
2018-05-23T04:52:55.966Z,79.71
2018-05-23T04:55:22.332Z,79.65
2018-05-23T04:57:48.715Z,79.91
2018-05-23T05:00:15.158Z,81.49
2018-05-23T05:02:44.529Z,81.47
2018-05-23T05:05:10.945Z,81.98
2018-05-23T05:07:37.279Z,81.91
2018-05-23T05:10:03.702Z,82.56
2018-05-23T05:12:30.174Z,82.27
2018-05-23T05:14:56.564Z,82.18
2018-05-23T05:17:22.921Z,82.29
2018-05-23T05:19:49.301Z,81.52
2018-05-23T05:22:15.636Z,80.54
2018-05-23T05:24:41.974Z,80.57
2018-05-23T05:27:08.403Z,80.60
2018-05-23T05:29:34.736Z,79.16
2018-05-23T05:32:01.109Z,78.08
2018-05-23T05:34:27.555Z,77.52
2018-05-23T05:36:53.895Z,79.19
2018-05-23T05:39:20.363Z,78.32
2018-05-23T05:41:46.802Z,76.97
2018-05-23T05:44:13.139Z,76.35
2018-05-23T05:46:39.481Z,75.62
2018-05-23T05:49:05.875Z,75.56
2018-05-23T05:51:32.213Z,74.55
2018-05-23T05:53:58.560Z,75.49
2018-05-23T05:56:25.360Z,75.23
2018-05-23T05:58:51.700Z,74.73
2018-05-23T06:01:18.194Z,73.47
2018-05-23T06:03:44.624Z,72.75
2018-05-23T06:06:10.968Z,71.92
2018-05-23T06:08:37.319Z,71.82
2018-05-23T06:11:03.781Z,71.42
2018-05-23T06:13:30.137Z,69.44
2018-05-23T06:15:56.483Z,68.31
2018-05-23T06:18:22.911Z,67.68
2018-05-23T06:20:49.254Z,67.93
2018-05-23T06:23:15.611Z,68.86
2018-05-23T06:25:42.034Z,67.05
2018-05-23T06:28:08.381Z,67.11
2018-05-23T06:30:34.754Z,65.26
2018-05-23T06:33:01.139Z,62.49
2018-05-23T06:35:27.490Z,61.31
2018-05-23T06:37:53.873Z,60.07
2018-05-23T06:40:21.276Z,63.01
2018-05-23T06:42:47.636Z,62.60
2018-05-23T06:45:14.088Z,62.41
2018-05-23T06:47:43.485Z,63.42
2018-05-23T06:50:09.912Z,66.61
2018-05-23T06:52:36.247Z,64.87
2018-05-23T06:55:05.640Z,64.01
2018-05-23T06:57:31.992Z,65.51
2018-05-23T06:59:58.355Z,66.40
2018-05-23T07:02:24.886Z,66.51
2018-05-23T07:04:51.236Z,66.34
2018-05-23T07:07:17.570Z,65.80
2018-05-23T07:09:43.957Z,66.99
2018-05-23T07:12:10.326Z,66.35
2018-05-23T07:14:36.714Z,67.63
2018-05-23T07:17:03.147Z,65.93
2018-05-23T07:19:34.869Z,64.85
2018-05-23T07:22:01.230Z,63.99
2018-05-23T07:24:28.072Z,61.82
2018-05-23T07:26:54.440Z,62.46
2018-05-23T07:29:20.797Z,63.30
2018-05-23T07:31:48.050Z,62.41
2018-05-23T07:34:14.390Z,61.51
2018-05-23T07:36:40.726Z,60.37
2018-05-23T07:39:07.104Z,59.01
2018-05-23T07:41:34.452Z,56.62
2018-05-23T07:44:00.931Z,55.49
2018-05-23T07:46:27.400Z,55.62
2018-05-23T07:48:53.734Z,55.10
2018-05-23T07:51:20.061Z,54.75
2018-05-23T07:53:46.441Z,51.67
2018-05-23T07:56:12.798Z,51.32
2018-05-23T07:58:39.125Z,54.07
2018-05-23T08:01:05.526Z,54.10
2018-05-23T08:03:35.385Z,54.00
2018-05-23T08:06:01.729Z,53.59
2018-05-23T08:08:28.190Z,53.70
2018-05-23T08:10:54.516Z,53.74
2018-05-23T08:13:20.838Z,52.04
2018-05-23T08:15:47.281Z,52.19
2018-05-23T08:18:13.624Z,52.80
2018-05-23T08:20:39.957Z,51.37
2018-05-23T08:23:06.342Z,52.92
2018-05-23T08:25:32.713Z,54.46
2018-05-23T08:27:59.045Z,51.92
2018-05-23T08:30:25.522Z,50.88
2018-05-23T08:32:51.853Z,49.55
2018-05-23T08:35:18.215Z,50.03
2018-05-23T08:37:44.848Z,49.85
2018-05-23T08:40:11.187Z,50.02
2018-05-23T08:42:37.546Z,50.28
2018-05-23T08:45:03.985Z,51.05
2018-05-23T08:47:30.331Z,49.89
2018-05-23T08:49:56.691Z,48.47
2018-05-23T08:52:23.130Z,50.41
2018-05-23T08:54:49.478Z,50.47
2018-05-23T08:57:15.836Z,48.13
2018-05-23T08:59:42.221Z,47.59
2018-05-23T09:02:08.565Z,43.10
2018-05-23T09:04:35.307Z,45.10
2018-05-23T09:07:01.756Z,45.88
2018-05-23T09:09:28.106Z,46.58
2018-05-23T09:11:54.447Z,44.43
2018-05-23T09:14:20.980Z,45.22
2018-05-23T09:16:48.311Z,45.17
2018-05-23T09:19:14.640Z,44.88
2018-05-23T09:21:41.030Z,44.06
2018-05-23T09:24:07.371Z,41.97
2018-05-23T09:26:33.691Z,43.25
2018-05-23T09:29:00.081Z,43.28
2018-05-23T09:31:26.508Z,41.78
2018-05-23T09:33:52.854Z,42.02
2018-05-23T09:36:19.295Z,42.62
2018-05-23T09:38:45.666Z,42.42
2018-05-23T09:41:12.059Z,42.59
2018-05-23T09:43:38.449Z,42.24
2018-05-23T09:46:04.795Z,43.25
2018-05-23T09:48:31.129Z,44.15
2018-05-23T09:50:58.445Z,44.42
2018-05-23T09:53:24.926Z,45.12
2018-05-23T09:55:51.268Z,44.63
2018-05-23T09:58:17.721Z,46.19
2018-05-23T10:00:44.060Z,45.96
2018-05-23T10:03:10.410Z,44.78
2018-05-23T10:05:36.921Z,44.42
2018-05-23T10:08:03.276Z,43.32
2018-05-23T10:10:29.691Z,42.01
2018-05-23T10:12:56.010Z,42.04
2018-05-23T10:15:22.339Z,41.28
2018-05-23T10:17:48.679Z,40.86
2018-05-23T10:20:15.125Z,40.67
2018-05-23T10:22:41.460Z,41.39
2018-05-23T10:25:07.871Z,43.19
2018-05-23T10:27:34.268Z,42.82
2018-05-23T10:30:00.631Z,40.93
2018-05-23T10:32:26.971Z,39.80
2018-05-23T10:34:53.357Z,40.04
2018-05-23T10:37:19.695Z,40.56
2018-05-23T10:39:46.051Z,39.47
2018-05-23T10:42:12.513Z,38.63
2018-05-23T10:44:38.843Z,39.03
2018-05-23T10:47:06.016Z,39.76
2018-05-23T10:49:32.388Z,38.07
2018-05-23T10:51:58.781Z,37.84
2018-05-23T10:54:25.097Z,35.92
2018-05-23T10:56:51.477Z,37.05
2018-05-23T10:59:17.813Z,38.71
2018-05-23T11:01:44.154Z,40.46
2018-05-23T11:04:10.618Z,39.83
2018-05-23T11:06:37.047Z,39.64
2018-05-23T11:09:04.251Z,38.08
2018-05-23T11:11:30.573Z,36.95
2018-05-23T11:13:56.973Z,38.07
2018-05-23T11:16:23.346Z,40.39
2018-05-23T11:18:49.734Z,38.50
2018-05-23T11:21:16.076Z,38.03
2018-05-23T11:23:42.418Z,37.96
2018-05-23T11:26:08.886Z,37.87
2018-05-23T11:28:35.231Z,36.44
2018-05-23T11:31:01.627Z,36.72
2018-05-23T11:33:28.117Z,35.31
2018-05-23T11:35:54.488Z,34.88
2018-05-23T11:38:20.827Z,33.50
2018-05-23T11:40:47.225Z,33.32
2018-05-23T11:43:13.582Z,35.05
2018-05-23T11:45:39.931Z,34.34
2018-05-23T11:48:06.406Z,34.83
2018-05-23T11:50:32.767Z,33.15
2018-05-23T11:52:59.105Z,36.07
2018-05-23T11:55:25.578Z,37.89
2018-05-23T11:57:51.887Z,38.87
2018-05-23T12:00:18.223Z,37.70
2018-05-23T12:02:44.946Z,36.70
2018-05-23T12:05:11.322Z,35.59
2018-05-23T12:07:38.326Z,37.64
2018-05-23T12:10:04.761Z,39.02
2018-05-23T12:12:31.086Z,42.08
2018-05-23T12:14:57.431Z,43.49
2018-05-23T12:17:23.695Z,43.75
2018-05-23T12:19:50.050Z,40.69
2018-05-23T12:22:16.397Z,42.47
2018-05-23T12:24:42.799Z,45.39
2018-05-23T12:27:09.133Z,45.54
2018-05-23T12:29:35.462Z,46.21
2018-05-23T12:32:01.895Z,46.16
2018-05-23T12:34:28.249Z,45.31
2018-05-23T12:36:54.577Z,47.73
2018-05-23T12:39:21.103Z,49.06
2018-05-23T12:41:47.444Z,51.01
2018-05-23T12:44:13.788Z,53.46
2018-05-23T12:46:40.189Z,51.56
2018-05-23T12:49:06.764Z,53.04
2018-05-23T12:51:33.091Z,53.60
2018-05-23T12:53:59.600Z,56.60
2018-05-23T12:56:25.943Z,58.56
2018-05-23T12:58:52.277Z,61.10
2018-05-23T13:01:18.642Z,61.54
2018-05-23T13:03:45.087Z,62.75
2018-05-23T13:06:11.443Z,62.90
2018-05-23T13:08:37.916Z,65.44
2018-05-23T13:11:04.250Z,65.95
2018-05-23T13:13:30.606Z,67.87
2018-05-23T13:15:57.039Z,68.09
2018-05-23T13:18:23.380Z,69.02
2018-05-23T13:20:49.723Z,65.60
2018-05-23T13:23:16.104Z,67.65
2018-05-23T13:25:42.461Z,66.01
2018-05-23T13:28:08.803Z,67.03
2018-05-23T13:30:35.201Z,64.75
2018-05-23T13:33:01.544Z,63.66
2018-05-23T13:35:27.884Z,66.15
2018-05-23T13:37:54.326Z,67.40
2018-05-23T13:40:20.687Z,67.01
2018-05-23T13:42:47.045Z,67.94
2018-05-23T13:45:13.420Z,67.93
2018-05-23T13:47:39.751Z,68.79
2018-05-23T13:50:06.083Z,69.26
2018-05-23T13:52:32.451Z,70.74
2018-05-23T13:54:58.798Z,68.95
2018-05-23T13:57:25.152Z,69.74
2018-05-23T13:59:51.687Z,69.46
2018-05-23T14:02:18.041Z,68.82
2018-05-23T14:04:44.386Z,67.02
2018-05-23T14:07:10.769Z,67.13
2018-05-23T14:09:37.238Z,65.93
2018-05-23T14:12:03.600Z,66.67
2018-05-23T14:14:29.999Z,67.81
2018-05-23T14:16:56.335Z,69.25
2018-05-23T14:19:22.716Z,71.37
2018-05-23T14:21:49.149Z,71.45
2018-05-23T14:24:15.492Z,71.82
2018-05-23T14:26:41.918Z,72.67
2018-05-23T14:29:08.294Z,71.60
2018-05-23T14:31:34.625Z,70.04
2018-05-23T14:34:00.957Z,72.00
2018-05-23T14:36:27.345Z,71.13
2018-05-23T14:38:53.676Z,72.16
2018-05-23T14:41:20.033Z,72.19
2018-05-23T14:43:46.574Z,72.49
2018-05-23T14:46:13.092Z,72.71
2018-05-23T14:48:39.416Z,69.76
2018-05-23T14:51:05.833Z,66.46
2018-05-23T14:53:32.164Z,65.24
2018-05-23T14:56:04.453Z,66.55
2018-05-23T14:58:36.927Z,68.39
2018-05-23T15:01:09.500Z,69.70
2018-05-23T15:03:36.816Z,68.64
2018-05-23T15:06:03.461Z,67.67
2018-05-23T15:08:29.834Z,69.98
2018-05-23T15:10:56.289Z,69.44
2018-05-23T15:13:22.668Z,68.19
2018-05-23T15:15:49.024Z,67.13
2018-05-23T15:18:15.374Z,67.92
2018-05-23T15:20:41.771Z,63.62
2018-05-23T15:23:14.162Z,66.52
2018-05-23T15:25:46.710Z,67.28
2018-05-23T15:28:19.068Z,66.94
2018-05-23T15:30:51.527Z,66.95
2018-05-23T15:33:23.868Z,64.04
2018-05-23T15:35:56.357Z,63.11
2018-05-23T15:38:29.182Z,65.57
2018-05-23T15:41:01.618Z,64.33
2018-05-23T15:43:34.116Z,63.51
2018-05-23T15:46:06.489Z,63.50
2018-05-23T15:48:39.211Z,65.97
2018-05-23T15:51:12.106Z,66.98
2018-05-23T15:53:44.486Z,66.92
2018-05-23T15:56:17.029Z,68.14
2018-05-23T15:58:49.572Z,68.05
2018-05-23T16:01:22.015Z,67.22
2018-05-23T16:03:54.287Z,66.11
2018-05-23T16:06:26.683Z,67.90
2018-05-23T16:08:59.073Z,68.17
2018-05-23T16:11:31.748Z,70.45
2018-05-23T16:14:04.341Z,68.80
2018-05-23T16:16:37.377Z,69.41
2018-05-23T16:19:09.908Z,70.34
2018-05-23T16:21:42.463Z,68.57
2018-05-23T16:24:14.887Z,70.76
2018-05-23T16:26:47.616Z,73.30
2018-05-23T16:29:20.160Z,73.84
2018-05-23T16:31:53.043Z,75.19
2018-05-23T16:34:25.363Z,75.33
2018-05-23T16:36:57.879Z,75.73
2018-05-23T16:39:30.614Z,75.77
2018-05-23T16:42:03.189Z,74.28
2018-05-23T16:44:35.685Z,73.67
2018-05-23T16:47:08.020Z,74.20
2018-05-23T16:49:40.568Z,75.21
2018-05-23T16:52:13.159Z,74.21
2018-05-23T16:54:45.657Z,74.50
2018-05-23T16:57:18.178Z,73.98
2018-05-23T16:59:50.665Z,74.74
2018-05-23T17:02:22.996Z,74.40
2018-05-23T17:04:55.526Z,74.39
2018-05-23T17:07:28.011Z,74.81
2018-05-23T17:10:00.292Z,74.48
2018-05-23T17:12:33.011Z,75.31
2018-05-23T17:15:05.421Z,73.57
2018-05-23T17:17:38.029Z,74.47
2018-05-23T17:20:10.297Z,74.43
2018-05-23T17:22:42.801Z,73.89
2018-05-23T17:25:15.194Z,74.17
2018-05-23T17:27:47.826Z,75.78
2018-05-23T17:30:20.276Z,76.00
2018-05-23T17:32:52.773Z,77.32
2018-05-23T17:35:25.201Z,76.66
2018-05-23T17:37:57.556Z,77.87
2018-05-23T17:40:29.872Z,79.51
2018-05-23T17:43:02.507Z,78.74
2018-05-23T17:45:34.987Z,78.31
2018-05-23T17:48:07.759Z,78.95
2018-05-23T17:50:40.064Z,78.84
2018-05-23T17:53:12.575Z,78.52
2018-05-23T17:55:44.983Z,78.80
2018-05-23T17:58:17.636Z,78.75
2018-05-23T18:00:55.253Z,78.58
2018-05-23T18:03:27.615Z,80.11
2018-05-23T18:06:00.182Z,80.73
2018-05-23T18:08:32.728Z,80.73
2018-05-23T18:11:05.016Z,79.45
2018-05-23T18:13:37.686Z,80.23
2018-05-23T18:16:10.066Z,79.77
2018-05-23T18:18:42.540Z,80.47
2018-05-23T18:21:15.090Z,81.00
2018-05-23T18:23:47.685Z,81.12
2018-05-23T18:26:20.023Z,81.47
2018-05-23T18:28:52.548Z,81.02
2018-05-23T18:31:25.025Z,80.75
2018-05-23T18:33:57.541Z,80.35
2018-05-23T18:36:29.881Z,80.93
2018-05-23T18:39:02.403Z,80.52
2018-05-23T18:41:34.930Z,80.79
2018-05-23T18:44:07.468Z,80.86
2018-05-23T18:46:39.960Z,80.43
2018-05-23T18:49:12.429Z,80.52
2018-05-23T18:51:44.872Z,80.16
2018-05-23T18:54:17.249Z,80.13
2018-05-23T18:56:49.658Z,79.77
2018-05-23T18:59:22.215Z,80.84
2018-05-23T19:01:54.770Z,81.29
2018-05-23T19:04:27.259Z,81.23
2018-05-23T19:06:59.803Z,81.36
2018-05-23T19:09:32.132Z,81.59
2018-05-23T19:12:04.621Z,81.60
2018-05-23T19:14:37.257Z,82.63
2018-05-23T19:17:09.655Z,83.44
2018-05-23T19:19:42.193Z,83.62
2018-05-23T19:22:14.636Z,82.93
2018-05-23T19:24:47.232Z,81.45
2018-05-23T19:27:19.607Z,77.87
2018-05-23T19:29:52.042Z,78.00
2018-05-23T19:32:24.557Z,78.31
2018-05-23T19:34:57.054Z,79.19
2018-05-23T19:37:29.508Z,79.64
2018-05-23T19:40:02.026Z,80.33
2018-05-23T19:42:34.524Z,80.20
2018-05-23T19:45:07.075Z,79.94
2018-05-23T19:47:39.500Z,80.10
2018-05-23T19:50:12.516Z,80.17
2018-05-23T19:52:45.238Z,80.03
2018-05-23T19:55:17.538Z,79.77
2018-05-23T19:57:49.988Z,80.39
2018-05-23T20:00:22.452Z,80.14
2018-05-23T20:02:54.937Z,80.38
2018-05-23T20:05:27.299Z,82.04
2018-05-23T20:07:59.921Z,84.10
2018-05-23T20:10:33.129Z,82.38
2018-05-23T20:13:05.610Z,83.38
2018-05-23T20:15:39.976Z,84.29
2018-05-23T20:18:12.470Z,85.80
2018-05-23T20:20:44.943Z,86.65
2018-05-23T20:23:17.439Z,86.35
2018-05-23T20:25:50.006Z,84.97
2018-05-23T20:28:22.316Z,84.71
2018-05-23T20:30:56.551Z,83.93
2018-05-23T20:33:29.044Z,83.81
2018-05-23T20:36:01.388Z,82.37
2018-05-23T20:38:33.822Z,82.10
2018-05-23T20:41:06.426Z,81.28
2018-05-23T20:43:38.697Z,81.57
2018-05-23T20:46:11.283Z,81.28
2018-05-23T20:48:43.725Z,81.59
2018-05-23T20:51:16.097Z,81.25
2018-05-23T20:53:48.577Z,81.18
2018-05-23T20:56:20.945Z,80.92
2018-05-23T20:58:53.515Z,80.06
2018-05-23T21:01:26.390Z,80.51
2018-05-23T21:03:58.771Z,81.08
2018-05-23T21:06:31.197Z,81.20
2018-05-23T21:09:05.459Z,81.59
2018-05-23T21:11:37.946Z,81.92
2018-05-23T21:14:10.450Z,83.24
2018-05-23T21:16:43.180Z,84.40
2018-05-23T21:19:15.559Z,84.61
2018-05-23T21:21:47.987Z,84.34
2018-05-23T21:24:20.422Z,83.95
2018-05-23T21:26:52.812Z,84.24
2018-05-23T21:29:25.274Z,84.21
2018-05-23T21:31:57.868Z,83.76
2018-05-23T21:34:30.376Z,83.46
2018-05-23T21:37:02.780Z,83.54
2018-05-23T21:39:35.270Z,83.66
2018-05-23T21:42:07.810Z,83.04
2018-05-23T21:44:40.128Z,82.96
2018-05-23T21:47:12.492Z,83.08
2018-05-23T21:49:44.951Z,83.17
2018-05-23T21:52:17.454Z,83.27
2018-05-23T21:54:49.773Z,85.09
2018-05-23T21:57:22.102Z,86.68
2018-05-23T21:59:54.376Z,87.52
2018-05-23T22:02:26.976Z,86.42
2018-05-23T22:04:59.368Z,85.97
2018-05-23T22:07:31.773Z,86.06
2018-05-23T22:10:04.185Z,86.22
2018-05-23T22:12:36.569Z,86.44
2018-05-23T22:17:47.370Z,86.49
2018-05-23T22:20:19.810Z,87.21
2018-05-23T22:22:52.111Z,86.69
2018-05-23T22:25:24.483Z,86.63
2018-05-23T22:27:57.021Z,86.24
2018-05-23T22:30:29.328Z,86.25
2018-05-23T22:33:01.760Z,86.52
2018-05-23T22:35:34.350Z,86.81
2018-05-23T22:38:06.993Z,86.47
2018-05-23T22:40:39.412Z,86.79
2018-05-23T22:43:11.719Z,85.78
2018-05-23T22:45:44.197Z,86.25
2018-05-23T22:48:16.757Z,86.63
2018-05-23T22:50:49.244Z,86.81
2018-05-23T22:53:21.577Z,86.80
2018-05-23T22:55:54.102Z,86.34
2018-05-23T22:58:26.708Z,86.78
2018-05-23T23:00:59.193Z,87.12
2018-05-23T23:03:31.754Z,87.61
2018-05-23T23:06:04.132Z,87.09
2018-05-23T23:08:36.465Z,87.02
2018-05-23T23:11:08.828Z,86.98
2018-05-23T23:13:41.344Z,87.43
2018-05-23T23:16:13.871Z,86.18
2018-05-23T23:18:47.597Z,86.50
2018-05-23T23:21:19.936Z,86.48
2018-05-23T23:23:52.922Z,86.38
2018-05-23T23:26:25.379Z,85.56
2018-05-23T23:28:57.706Z,86.33
2018-05-23T23:31:30.190Z,87.04
2018-05-23T23:34:02.760Z,86.89
2018-05-23T23:36:35.156Z,86.58
2018-05-23T23:39:07.495Z,86.09
2018-05-23T23:41:39.940Z,85.86
2018-05-23T23:44:12.411Z,86.62
2018-05-23T23:46:44.825Z,86.14
2018-05-23T23:49:17.225Z,86.09
2018-05-23T23:51:49.690Z,86.86
2018-05-23T23:54:22.409Z,86.21
2018-05-23T23:56:56.154Z,87.31
2018-05-23T23:59:28.832Z,86.72
